Kezdőlap
METAR-TAF:

METAR-TAF

Repülőterek :

Manzini, Szváziföld

földrajzi szélesség: 26-32S, földrajzi hosszúság: 031-18E, magasság: 641 m

Jelenlegi meteorológiai megfigyelések

A jelentés 18 órával és 49 perccel ezelõtt készült, 12:00 UTC
Dél-délkeleti szél 5 kt
Hőmérséklet 21°C
Páratartalom 49%
Légköri nyomás 1031 hPa
Látótávolság 10 km, vagy több
Szórványos felhőzet 3000 lábon

METAR: FDMS 231200Z 16005KT 9999 SCT030 21/10 Q1031 NOSIG

Idő: 08:49 (06:49 UTC)

Előrejelzés

A jelentés 20 órával és 49 perccel ezelõtt készült, 10:00 UTC
Az előrejelzés 23-én 12 óra UTC és 23-én 18 óra UTC között érvényes
Dél-délkeleti szél 7 kt
Látótávolság 10 km, vagy több
Szórványos felhőzet 3500 lábon

TAF: FDMS 231000Z 2312/2318 16007KT 9999 SCT035

Meteorológiai megfigyelések és előrejelzések több, mint 4000 repülőtéren (METAR és TAF jelentéseket).

A térképen piros és sárga pontok jelzik az elérhető meteorológiai állomásokat.

Mozgassa az egeret a pont fölött, hogy megjelenjen az állomás neve.

Azután kattintson az időjárási megfigyelések és előrejelzések megtekintéséhez.

A térkép megváltoztatása: kattintson a fekete keresztel jelölt zöld gombra ráközelítéshez, a vonallal jelölt zöld gombra távolításhoz, vagy a zöld nyilakra a szomszédos térképek eléréséhez.


METAR-TAF: